sensor_id;sensor_type;location;lat;lon;timestamp;P1;durP1;ratioP1;P2;durP2;ratioP2
5379;SDS011;2713;42.680;23.310;2023-05-10T00:00:09;6.40;;;5.80;;
5379;SDS011;2713;42.680;23.310;2023-05-10T00:02:40;6.93;;;6.23;;
5379;SDS011;2713;42.680;23.310;2023-05-10T00:05:07;6.90;;;6.20;;
5379;SDS011;2713;42.680;23.310;2023-05-10T00:07:34;8.77;;;6.50;;
5379;SDS011;2713;42.680;23.310;2023-05-10T00:10:03;6.50;;;5.90;;
5379;SDS011;2713;42.680;23.310;2023-05-10T00:12:30;6.80;;;6.10;;
5379;SDS011;2713;42.680;23.310;2023-05-10T00:14:56;7.10;;;6.40;;
5379;SDS011;2713;42.680;23.310;2023-05-10T00:17:23;7.17;;;6.47;;
5379;SDS011;2713;42.680;23.310;2023-05-10T00:19:50;7.13;;;6.43;;
5379;SDS011;2713;42.680;23.310;2023-05-10T00:22:17;7.93;;;5.97;;
5379;SDS011;2713;42.680;23.310;2023-05-10T00:24:43;7.70;;;6.63;;
5379;SDS011;2713;42.680;23.310;2023-05-10T00:27:12;8.60;;;7.30;;
5379;SDS011;2713;42.680;23.310;2023-05-10T00:29:38;7.57;;;6.53;;
5379;SDS011;2713;42.680;23.310;2023-05-10T00:32:05;7.00;;;6.30;;
5379;SDS011;2713;42.680;23.310;2023-05-10T00:34:32;7.10;;;6.40;;
5379;SDS011;2713;42.680;23.310;2023-05-10T00:36:59;7.30;;;6.60;;
5379;SDS011;2713;42.680;23.310;2023-05-10T00:39:26;7.97;;;7.17;;
5379;SDS011;2713;42.680;23.310;2023-05-10T00:41:53;7.83;;;6.97;;
5379;SDS011;2713;42.680;23.310;2023-05-10T00:44:22;8.93;;;7.33;;
5379;SDS011;2713;42.680;23.310;2023-05-10T00:46:49;8.73;;;7.30;;
5379;SDS011;2713;42.680;23.310;2023-05-10T00:49:16;10.53;;;7.57;;
5379;SDS011;2713;42.680;23.310;2023-05-10T00:51:43;9.00;;;7.77;;
5379;SDS011;2713;42.680;23.310;2023-05-10T00:54:10;8.00;;;7.20;;
5379;SDS011;2713;42.680;23.310;2023-05-10T00:56:38;8.83;;;7.20;;
5379;SDS011;2713;42.680;23.310;2023-05-10T00:59:04;9.73;;;8.03;;
5379;SDS011;2713;42.680;23.310;2023-05-10T01:01:32;9.03;;;8.20;;
5379;SDS011;2713;42.680;23.310;2023-05-10T01:03:59;11.67;;;7.77;;
5379;SDS011;2713;42.680;23.310;2023-05-10T01:06:27;9.80;;;7.80;;
5379;SDS011;2713;42.680;23.310;2023-05-10T01:08:54;9.63;;;8.47;;
5379;SDS011;2713;42.680;23.310;2023-05-10T01:11:21;12.60;;;8.47;;
5379;SDS011;2713;42.680;23.310;2023-05-10T01:13:50;8.33;;;7.20;;
5379;SDS011;2713;42.680;23.310;2023-05-10T01:16:21;8.90;;;7.97;;
5379;SDS011;2713;42.680;23.310;2023-05-10T01:18:50;9.07;;;8.10;;
5379;SDS011;2713;42.680;23.310;2023-05-10T01:21:19;8.33;;;7.53;;
5379;SDS011;2713;42.680;23.310;2023-05-10T01:26:56;8.60;;;7.70;;
5379;SDS011;2713;42.680;23.310;2023-05-10T01:29:47;8.43;;;7.47;;
5379;SDS011;2713;42.680;23.310;2023-05-10T01:32:37;8.10;;;7.30;;
5379;SDS011;2713;42.680;23.310;2023-05-10T01:35:14;8.53;;;7.73;;
5379;SDS011;2713;42.680;23.310;2023-05-10T01:37:46;9.40;;;7.70;;
5379;SDS011;2713;42.680;23.310;2023-05-10T01:40:19;8.97;;;7.53;;
5379;SDS011;2713;42.680;23.310;2023-05-10T01:42:54;7.80;;;7.10;;
5379;SDS011;2713;42.680;23.310;2023-05-10T01:45:27;8.50;;;7.70;;
5379;SDS011;2713;42.680;23.310;2023-05-10T01:48:03;6.77;;;6.17;;
5379;SDS011;2713;42.680;23.310;2023-05-10T01:50:32;6.63;;;6.03;;
5379;SDS011;2713;42.680;23.310;2023-05-10T01:53:01;6.17;;;5.50;;
5379;SDS011;2713;42.680;23.310;2023-05-10T01:55:35;5.60;;;5.10;;
5379;SDS011;2713;42.680;23.310;2023-05-10T01:58:07;6.23;;;5.43;;
5379;SDS011;2713;42.680;23.310;2023-05-10T02:00:37;5.60;;;5.10;;
5379;SDS011;2713;42.680;23.310;2023-05-10T02:03:10;6.00;;;5.50;;
5379;SDS011;2713;42.680;23.310;2023-05-10T02:05:39;5.50;;;5.03;;
5379;SDS011;2713;42.680;23.310;2023-05-10T02:08:10;5.40;;;5.00;;
5379;SDS011;2713;42.680;23.310;2023-05-10T02:10:41;6.00;;;5.40;;
5379;SDS011;2713;42.680;23.310;2023-05-10T02:13:11;5.40;;;5.00;;
5379;SDS011;2713;42.680;23.310;2023-05-10T02:15:40;6.13;;;5.00;;
5379;SDS011;2713;42.680;23.310;2023-05-10T02:18:12;5.00;;;4.60;;
5379;SDS011;2713;42.680;23.310;2023-05-10T02:20:42;5.27;;;4.80;;
5379;SDS011;2713;42.680;23.310;2023-05-10T02:23:14;4.90;;;4.50;;
5379;SDS011;2713;42.680;23.310;2023-05-10T02:25:46;4.67;;;4.27;;
5379;SDS011;2713;42.680;23.310;2023-05-10T02:28:16;4.40;;;4.10;;
5379;SDS011;2713;42.680;23.310;2023-05-10T02:30:44;5.10;;;4.70;;
5379;SDS011;2713;42.680;23.310;2023-05-10T02:33:14;4.77;;;4.37;;
5379;SDS011;2713;42.680;23.310;2023-05-10T02:35:41;5.07;;;4.50;;
5379;SDS011;2713;42.680;23.310;2023-05-10T02:38:08;4.13;;;3.80;;
5379;SDS011;2713;42.680;23.310;2023-05-10T02:40:36;6.27;;;4.83;;
5379;SDS011;2713;42.680;23.310;2023-05-10T02:43:04;6.20;;;4.87;;
5379;SDS011;2713;42.680;23.310;2023-05-10T02:45:35;5.43;;;4.63;;
5379;SDS011;2713;42.680;23.310;2023-05-10T02:48:04;4.43;;;3.80;;
5379;SDS011;2713;42.680;23.310;2023-05-10T02:50:33;5.33;;;4.90;;
5379;SDS011;2713;42.680;23.310;2023-05-10T02:53:03;5.00;;;4.60;;
5379;SDS011;2713;42.680;23.310;2023-05-10T02:55:36;5.63;;;5.13;;
5379;SDS011;2713;42.680;23.310;2023-05-10T02:58:06;5.47;;;4.70;;
5379;SDS011;2713;42.680;23.310;2023-05-10T03:00:33;5.40;;;4.73;;
5379;SDS011;2713;42.680;23.310;2023-05-10T03:03:01;5.27;;;4.77;;
5379;SDS011;2713;42.680;23.310;2023-05-10T03:05:28;5.60;;;5.10;;
5379;SDS011;2713;42.680;23.310;2023-05-10T03:08:00;5.43;;;4.93;;
5379;SDS011;2713;42.680;23.310;2023-05-10T03:10:29;6.43;;;5.07;;
5379;SDS011;2713;42.680;23.310;2023-05-10T03:13:04;5.53;;;5.03;;
5379;SDS011;2713;42.680;23.310;2023-05-10T03:15:38;5.73;;;4.60;;
5379;SDS011;2713;42.680;23.310;2023-05-10T03:18:15;5.40;;;4.90;;
5379;SDS011;2713;42.680;23.310;2023-05-10T03:20:47;5.03;;;4.63;;
5379;SDS011;2713;42.680;23.310;2023-05-10T03:23:22;6.17;;;4.70;;
5379;SDS011;2713;42.680;23.310;2023-05-10T03:25:56;5.00;;;4.60;;
5379;SDS011;2713;42.680;23.310;2023-05-10T03:28:26;6.23;;;5.10;;
5379;SDS011;2713;42.680;23.310;2023-05-10T03:30:55;4.70;;;4.30;;
5379;SDS011;2713;42.680;23.310;2023-05-10T03:33:22;4.77;;;4.37;;
5379;SDS011;2713;42.680;23.310;2023-05-10T03:35:49;5.23;;;4.73;;
5379;SDS011;2713;42.680;23.310;2023-05-10T03:38:16;5.63;;;5.13;;
5379;SDS011;2713;42.680;23.310;2023-05-10T03:40:44;5.30;;;4.80;;
5379;SDS011;2713;42.680;23.310;2023-05-10T03:43:11;6.10;;;5.47;;
5379;SDS011;2713;42.680;23.310;2023-05-10T03:45:38;5.77;;;5.23;;
5379;SDS011;2713;42.680;23.310;2023-05-10T03:48:05;5.40;;;4.90;;
5379;SDS011;2713;42.680;23.310;2023-05-10T03:50:32;5.77;;;5.20;;
5379;SDS011;2713;42.680;23.310;2023-05-10T03:52:59;6.20;;;5.30;;
5379;SDS011;2713;42.680;23.310;2023-05-10T03:55:28;6.23;;;5.50;;
5379;SDS011;2713;42.680;23.310;2023-05-10T03:57:58;5.83;;;5.03;;
5379;SDS011;2713;42.680;23.310;2023-05-10T04:00:25;6.00;;;5.40;;
5379;SDS011;2713;42.680;23.310;2023-05-10T04:02:54;12.13;;;6.00;;
5379;SDS011;2713;42.680;23.310;2023-05-10T04:05:22;7.10;;;5.30;;
5379;SDS011;2713;42.680;23.310;2023-05-10T04:07:50;4.97;;;4.43;;
5379;SDS011;2713;42.680;23.310;2023-05-10T04:10:17;5.80;;;5.30;;
5379;SDS011;2713;42.680;23.310;2023-05-10T04:12:44;5.93;;;5.00;;
5379;SDS011;2713;42.680;23.310;2023-05-10T04:15:12;6.60;;;5.13;;
5379;SDS011;2713;42.680;23.310;2023-05-10T04:17:39;6.83;;;5.47;;
5379;SDS011;2713;42.680;23.310;2023-05-10T04:23:59;6.27;;;5.10;;
5379;SDS011;2713;42.680;23.310;2023-05-10T04:26:26;6.73;;;5.77;;
5379;SDS011;2713;42.680;23.310;2023-05-10T04:28:53;5.57;;;5.07;;
5379;SDS011;2713;42.680;23.310;2023-05-10T04:31:21;7.13;;;6.40;;
5379;SDS011;2713;42.680;23.310;2023-05-10T04:33:48;9.03;;;5.73;;
5379;SDS011;2713;42.680;23.310;2023-05-10T04:36:15;6.50;;;5.70;;
5379;SDS011;2713;42.680;23.310;2023-05-10T04:38:50;6.10;;;5.50;;
5379;SDS011;2713;42.680;23.310;2023-05-10T04:41:18;6.90;;;6.20;;
5379;SDS011;2713;42.680;23.310;2023-05-10T04:43:45;6.77;;;6.10;;
5379;SDS011;2713;42.680;23.310;2023-05-10T04:46:14;9.07;;;6.27;;
5379;SDS011;2713;42.680;23.310;2023-05-10T04:48:43;7.20;;;6.50;;
5379;SDS011;2713;42.680;23.310;2023-05-10T04:51:10;7.17;;;5.93;;
5379;SDS011;2713;42.680;23.310;2023-05-10T04:53:37;6.87;;;5.93;;
5379;SDS011;2713;42.680;23.310;2023-05-10T04:56:04;7.13;;;6.43;;
5379;SDS011;2713;42.680;23.310;2023-05-10T04:58:32;7.10;;;5.77;;
5379;SDS011;2713;42.680;23.310;2023-05-10T05:01:04;7.50;;;6.33;;
5379;SDS011;2713;42.680;23.310;2023-05-10T05:03:31;6.70;;;6.07;;
5379;SDS011;2713;42.680;23.310;2023-05-10T05:06:00;7.93;;;6.47;;
5379;SDS011;2713;42.680;23.310;2023-05-10T05:08:26;6.80;;;6.13;;
5379;SDS011;2713;42.680;23.310;2023-05-10T05:10:53;6.10;;;5.50;;
5379;SDS011;2713;42.680;23.310;2023-05-10T05:13:20;7.43;;;5.83;;
5379;SDS011;2713;42.680;23.310;2023-05-10T05:15:47;7.00;;;6.30;;
5379;SDS011;2713;42.680;23.310;2023-05-10T05:18:14;7.57;;;6.22;;
5379;SDS011;2713;42.680;23.310;2023-05-10T05:20:41;8.80;;;6.87;;
5379;SDS011;2713;42.680;23.310;2023-05-10T05:23:09;8.00;;;6.97;;
5379;SDS011;2713;42.680;23.310;2023-05-10T05:25:36;7.47;;;6.23;;
5379;SDS011;2713;42.680;23.310;2023-05-10T05:28:03;7.17;;;6.40;;
5379;SDS011;2713;42.680;23.310;2023-05-10T05:30:30;7.47;;;6.70;;
5379;SDS011;2713;42.680;23.310;2023-05-10T05:32:56;6.97;;;6.30;;
5379;SDS011;2713;42.680;23.310;2023-05-10T05:35:23;8.20;;;6.80;;
5379;SDS011;2713;42.680;23.310;2023-05-10T05:37:51;8.60;;;7.70;;
5379;SDS011;2713;42.680;23.310;2023-05-10T05:40:19;8.00;;;6.63;;
5379;SDS011;2713;42.680;23.310;2023-05-10T05:42:46;10.53;;;7.00;;
5379;SDS011;2713;42.680;23.310;2023-05-10T05:45:13;8.00;;;7.20;;
5379;SDS011;2713;42.680;23.310;2023-05-10T05:47:40;8.13;;;7.27;;
5379;SDS011;2713;42.680;23.310;2023-05-10T05:50:07;10.30;;;7.70;;
5379;SDS011;2713;42.680;23.310;2023-05-10T05:52:34;9.43;;;7.37;;
5379;SDS011;2713;42.680;23.310;2023-05-10T05:55:01;11.20;;;8.17;;
5379;SDS011;2713;42.680;23.310;2023-05-10T05:57:30;8.57;;;7.63;;
5379;SDS011;2713;42.680;23.310;2023-05-10T05:59:57;11.90;;;7.47;;
5379;SDS011;2713;42.680;23.310;2023-05-10T06:02:24;9.00;;;7.77;;
5379;SDS011;2713;42.680;23.310;2023-05-10T06:04:51;10.83;;;8.60;;
5379;SDS011;2713;42.680;23.310;2023-05-10T06:07:18;13.30;;;7.33;;
5379;SDS011;2713;42.680;23.310;2023-05-10T06:09:44;9.93;;;8.23;;
5379;SDS011;2713;42.680;23.310;2023-05-10T06:12:11;8.40;;;7.40;;
5379;SDS011;2713;42.680;23.310;2023-05-10T06:14:39;9.50;;;7.80;;
5379;SDS011;2713;42.680;23.310;2023-05-10T06:17:06;11.27;;;8.90;;
5379;SDS011;2713;42.680;23.310;2023-05-10T06:19:33;9.47;;;7.83;;
5379;SDS011;2713;42.680;23.310;2023-05-10T06:22:00;10.90;;;7.80;;
5379;SDS011;2713;42.680;23.310;2023-05-10T06:24:26;8.83;;;7.73;;
5379;SDS011;2713;42.680;23.310;2023-05-10T06:26:53;9.80;;;7.37;;
5379;SDS011;2713;42.680;23.310;2023-05-10T06:29:20;8.87;;;7.77;;
5379;SDS011;2713;42.680;23.310;2023-05-10T06:31:50;8.77;;;7.87;;
5379;SDS011;2713;42.680;23.310;2023-05-10T06:34:17;9.63;;;7.50;;
5379;SDS011;2713;42.680;23.310;2023-05-10T06:36:43;11.57;;;8.80;;
5379;SDS011;2713;42.680;23.310;2023-05-10T06:39:11;8.77;;;7.40;;
5379;SDS011;2713;42.680;23.310;2023-05-10T06:41:38;11.93;;;7.03;;
5379;SDS011;2713;42.680;23.310;2023-05-10T06:44:05;10.50;;;8.33;;
5379;SDS011;2713;42.680;23.310;2023-05-10T06:46:32;11.83;;;7.70;;
5379;SDS011;2713;42.680;23.310;2023-05-10T06:49:00;8.03;;;7.23;;
5379;SDS011;2713;42.680;23.310;2023-05-10T06:51:30;8.43;;;7.53;;
5379;SDS011;2713;42.680;23.310;2023-05-10T06:53:58;9.57;;;7.70;;
5379;SDS011;2713;42.680;23.310;2023-05-10T06:56:25;9.13;;;7.67;;
5379;SDS011;2713;42.680;23.310;2023-05-10T06:58:52;8.90;;;7.50;;
5379;SDS011;2713;42.680;23.310;2023-05-10T07:01:21;9.60;;;7.87;;
5379;SDS011;2713;42.680;23.310;2023-05-10T07:03:48;8.13;;;7.33;;
5379;SDS011;2713;42.680;23.310;2023-05-10T07:06:17;9.47;;;7.50;;
5379;SDS011;2713;42.680;23.310;2023-05-10T07:08:44;9.30;;;7.50;;
5379;SDS011;2713;42.680;23.310;2023-05-10T07:11:10;7.87;;;7.07;;
5379;SDS011;2713;42.680;23.310;2023-05-10T07:13:37;12.03;;;7.80;;
5379;SDS011;2713;42.680;23.310;2023-05-10T07:16:09;8.63;;;7.57;;
5379;SDS011;2713;42.680;23.310;2023-05-10T07:18:36;11.63;;;7.80;;
5379;SDS011;2713;42.680;23.310;2023-05-10T07:21:03;8.50;;;7.60;;
5379;SDS011;2713;42.680;23.310;2023-05-10T07:23:31;8.67;;;7.77;;
5379;SDS011;2713;42.680;23.310;2023-05-10T07:25:58;11.60;;;7.77;;
5379;SDS011;2713;42.680;23.310;2023-05-10T07:28:25;9.27;;;7.17;;
5379;SDS011;2713;42.680;23.310;2023-05-10T07:30:52;10.43;;;7.97;;
5379;SDS011;2713;42.680;23.310;2023-05-10T07:33:18;8.17;;;7.37;;
5379;SDS011;2713;42.680;23.310;2023-05-10T07:35:45;12.80;;;7.27;;
5379;SDS011;2713;42.680;23.310;2023-05-10T07:38:12;8.40;;;7.60;;
5379;SDS011;2713;42.680;23.310;2023-05-10T07:40:41;10.43;;;7.67;;
5379;SDS011;2713;42.680;23.310;2023-05-10T07:43:08;8.83;;;7.93;;
5379;SDS011;2713;42.680;23.310;2023-05-10T07:45:35;9.13;;;7.97;;
5379;SDS011;2713;42.680;23.310;2023-05-10T07:48:02;9.13;;;8.23;;
5379;SDS011;2713;42.680;23.310;2023-05-10T07:50:29;9.50;;;7.50;;
5379;SDS011;2713;42.680;23.310;2023-05-10T07:52:56;13.83;;;9.27;;
5379;SDS011;2713;42.680;23.310;2023-05-10T07:55:23;9.80;;;7.90;;
5379;SDS011;2713;42.680;23.310;2023-05-10T07:57:51;11.03;;;9.40;;
5379;SDS011;2713;42.680;23.310;2023-05-10T08:00:18;10.20;;;8.73;;
5379;SDS011;2713;42.680;23.310;2023-05-10T08:02:46;9.83;;;8.70;;
5379;SDS011;2713;42.680;23.310;2023-05-10T08:05:13;9.60;;;8.50;;
5379;SDS011;2713;42.680;23.310;2023-05-10T08:07:40;10.33;;;9.10;;
5379;SDS011;2713;42.680;23.310;2023-05-10T08:10:08;11.27;;;8.47;;
5379;SDS011;2713;42.680;23.310;2023-05-10T08:12:36;11.00;;;8.53;;
5379;SDS011;2713;42.680;23.310;2023-05-10T08:15:05;10.30;;;8.37;;
5379;SDS011;2713;42.680;23.310;2023-05-10T08:17:32;11.50;;;9.10;;
5379;SDS011;2713;42.680;23.310;2023-05-10T08:19:59;11.85;;;8.73;;
5379;SDS011;2713;42.680;23.310;2023-05-10T08:22:26;9.73;;;8.73;;
5379;SDS011;2713;42.680;23.310;2023-05-10T08:24:53;9.50;;;8.50;;
5379;SDS011;2713;42.680;23.310;2023-05-10T08:27:20;10.00;;;8.70;;
5379;SDS011;2713;42.680;23.310;2023-05-10T08:29:47;9.90;;;8.00;;
5379;SDS011;2713;42.680;23.310;2023-05-10T08:32:15;10.87;;;9.67;;
5379;SDS011;2713;42.680;23.310;2023-05-10T08:34:42;9.77;;;8.50;;
5379;SDS011;2713;42.680;23.310;2023-05-10T08:37:08;9.33;;;8.43;;
5379;SDS011;2713;42.680;23.310;2023-05-10T08:39:38;10.30;;;8.90;;
5379;SDS011;2713;42.680;23.310;2023-05-10T08:42:05;11.30;;;8.57;;
5379;SDS011;2713;42.680;23.310;2023-05-10T08:44:35;10.17;;;8.20;;
5379;SDS011;2713;42.680;23.310;2023-05-10T08:47:04;11.13;;;8.40;;
5379;SDS011;2713;42.680;23.310;2023-05-10T08:49:34;10.77;;;9.50;;
5379;SDS011;2713;42.680;23.310;2023-05-10T08:52:02;11.90;;;10.03;;
5379;SDS011;2713;42.680;23.310;2023-05-10T08:54:33;11.90;;;9.40;;
5379;SDS011;2713;42.680;23.310;2023-05-10T08:57:00;10.87;;;8.93;;
5379;SDS011;2713;42.680;23.310;2023-05-10T08:59:28;11.60;;;9.33;;
5379;SDS011;2713;42.680;23.310;2023-05-10T09:01:55;12.67;;;9.80;;
5379;SDS011;2713;42.680;23.310;2023-05-10T09:04:24;12.07;;;9.70;;
5379;SDS011;2713;42.680;23.310;2023-05-10T09:06:53;11.67;;;10.23;;
5379;SDS011;2713;42.680;23.310;2023-05-10T09:09:20;11.77;;;10.53;;
5379;SDS011;2713;42.680;23.310;2023-05-10T09:11:47;10.50;;;9.40;;
5379;SDS011;2713;42.680;23.310;2023-05-10T09:14:14;12.67;;;10.00;;
5379;SDS011;2713;42.680;23.310;2023-05-10T09:16:42;11.13;;;10.03;;
5379;SDS011;2713;42.680;23.310;2023-05-10T09:19:09;13.87;;;10.33;;
5379;SDS011;2713;42.680;23.310;2023-05-10T09:21:36;11.23;;;9.80;;
5379;SDS011;2713;42.680;23.310;2023-05-10T09:24:06;12.43;;;10.33;;
5379;SDS011;2713;42.680;23.310;2023-05-10T09:26:33;12.33;;;9.33;;
5379;SDS011;2713;42.680;23.310;2023-05-10T09:29:02;12.73;;;9.47;;
5379;SDS011;2713;42.680;23.310;2023-05-10T09:31:44;12.87;;;9.43;;
5379;SDS011;2713;42.680;23.310;2023-05-10T09:34:15;11.90;;;9.80;;
5379;SDS011;2713;42.680;23.310;2023-05-10T09:36:53;11.10;;;9.17;;
5379;SDS011;2713;42.680;23.310;2023-05-10T09:39:30;10.63;;;9.60;;
5379;SDS011;2713;42.680;23.310;2023-05-10T09:41:58;11.63;;;9.07;;
5379;SDS011;2713;42.680;23.310;2023-05-10T09:44:26;10.87;;;9.77;;
5379;SDS011;2713;42.680;23.310;2023-05-10T09:46:54;14.00;;;9.90;;
5379;SDS011;2713;42.680;23.310;2023-05-10T09:49:22;10.43;;;9.43;;
5379;SDS011;2713;42.680;23.310;2023-05-10T09:51:59;12.20;;;9.87;;
5379;SDS011;2713;42.680;23.310;2023-05-10T09:54:27;11.90;;;9.30;;
5379;SDS011;2713;42.680;23.310;2023-05-10T09:56:56;10.40;;;9.40;;
5379;SDS011;2713;42.680;23.310;2023-05-10T09:59:24;11.20;;;10.10;;
5379;SDS011;2713;42.680;23.310;2023-05-10T10:01:52;10.90;;;9.80;;
5379;SDS011;2713;42.680;23.310;2023-05-10T10:04:20;10.80;;;9.70;;
5379;SDS011;2713;42.680;23.310;2023-05-10T10:06:47;10.67;;;9.57;;
5379;SDS011;2713;42.680;23.310;2023-05-10T10:09:25;11.57;;;10.40;;
5379;SDS011;2713;42.680;23.310;2023-05-10T10:11:55;11.17;;;9.97;;
5379;SDS011;2713;42.680;23.310;2023-05-10T10:14:22;11.23;;;10.03;;
5379;SDS011;2713;42.680;23.310;2023-05-10T10:16:50;13.60;;;9.80;;
5379;SDS011;2713;42.680;23.310;2023-05-10T10:19:18;11.17;;;9.20;;
5379;SDS011;2713;42.680;23.310;2023-05-10T10:21:45;12.03;;;8.80;;
5379;SDS011;2713;42.680;23.310;2023-05-10T10:24:12;11.10;;;9.90;;
5379;SDS011;2713;42.680;23.310;2023-05-10T10:26:39;9.43;;;8.30;;
5379;SDS011;2713;42.680;23.310;2023-05-10T10:29:12;8.63;;;7.83;;
5379;SDS011;2713;42.680;23.310;2023-05-10T10:31:49;9.73;;;8.83;;
5379;SDS011;2713;42.680;23.310;2023-05-10T10:34:25;10.17;;;9.13;;
5379;SDS011;2713;42.680;23.310;2023-05-10T10:36:54;9.50;;;8.50;;
5379;SDS011;2713;42.680;23.310;2023-05-10T10:39:22;9.30;;;8.40;;
5379;SDS011;2713;42.680;23.310;2023-05-10T10:41:51;10.80;;;8.27;;
5379;SDS011;2713;42.680;23.310;2023-05-10T10:44:24;12.13;;;8.50;;
5379;SDS011;2713;42.680;23.310;2023-05-10T10:47:02;10.07;;;8.43;;
5379;SDS011;2713;42.680;23.310;2023-05-10T10:49:37;9.53;;;8.57;;
5379;SDS011;2713;42.680;23.310;2023-05-10T10:52:24;10.10;;;8.20;;
5379;SDS011;2713;42.680;23.310;2023-05-10T10:54:58;9.77;;;7.20;;
5379;SDS011;2713;42.680;23.310;2023-05-10T10:57:27;8.60;;;7.73;;
5379;SDS011;2713;42.680;23.310;2023-05-10T11:02:50;8.37;;;7.60;;
5379;SDS011;2713;42.680;23.310;2023-05-10T11:05:34;8.40;;;7.70;;
5379;SDS011;2713;42.680;23.310;2023-05-10T11:08:07;11.73;;;8.80;;
5379;SDS011;2713;42.680;23.310;2023-05-10T11:10:49;11.43;;;9.23;;
5379;SDS011;2713;42.680;23.310;2023-05-10T11:13:26;8.67;;;7.87;;
5379;SDS011;2713;42.680;23.310;2023-05-10T11:15:56;10.43;;;7.90;;
5379;SDS011;2713;42.680;23.310;2023-05-10T11:18:25;9.20;;;8.07;;
5379;SDS011;2713;42.680;23.310;2023-05-10T11:21:06;10.37;;;7.87;;
5379;SDS011;2713;42.680;23.310;2023-05-10T11:23:47;8.27;;;6.83;;
5379;SDS011;2713;42.680;23.310;2023-05-10T11:26:15;10.07;;;7.60;;
5379;SDS011;2713;42.680;23.310;2023-05-10T11:28:43;9.30;;;8.13;;
5379;SDS011;2713;42.680;23.310;2023-05-10T11:31:11;8.63;;;7.43;;
5379;SDS011;2713;42.680;23.310;2023-05-10T11:33:43;7.87;;;7.10;;
5379;SDS011;2713;42.680;23.310;2023-05-10T11:36:10;9.00;;;8.10;;
5379;SDS011;2713;42.680;23.310;2023-05-10T11:38:38;12.70;;;7.30;;
5379;SDS011;2713;42.680;23.310;2023-05-10T11:41:05;8.07;;;7.27;;
5379;SDS011;2713;42.680;23.310;2023-05-10T11:43:34;8.73;;;7.87;;
5379;SDS011;2713;42.680;23.310;2023-05-10T11:46:10;10.50;;;8.33;;
5379;SDS011;2713;42.680;23.310;2023-05-10T11:48:42;9.40;;;7.63;;
5379;SDS011;2713;42.680;23.310;2023-05-10T11:51:10;8.77;;;7.87;;
5379;SDS011;2713;42.680;23.310;2023-05-10T11:53:37;9.53;;;8.53;;
5379;SDS011;2713;42.680;23.310;2023-05-10T11:56:05;9.87;;;7.20;;
5379;SDS011;2713;42.680;23.310;2023-05-10T11:58:33;10.03;;;8.50;;
5379;SDS011;2713;42.680;23.310;2023-05-10T12:01:01;8.77;;;7.53;;
5379;SDS011;2713;42.680;23.310;2023-05-10T12:03:30;9.40;;;8.20;;
5379;SDS011;2713;42.680;23.310;2023-05-10T12:05:58;11.07;;;8.17;;
5379;SDS011;2713;42.680;23.310;2023-05-10T12:08:26;8.90;;;7.23;;
5379;SDS011;2713;42.680;23.310;2023-05-10T12:11:04;12.10;;;8.00;;
5379;SDS011;2713;42.680;23.310;2023-05-10T12:13:36;9.10;;;8.20;;
5379;SDS011;2713;42.680;23.310;2023-05-10T12:16:12;10.20;;;8.87;;
5379;SDS011;2713;42.680;23.310;2023-05-10T12:18:41;9.17;;;8.30;;
5379;SDS011;2713;42.680;23.310;2023-05-10T12:21:09;14.13;;;8.77;;
5379;SDS011;2713;42.680;23.310;2023-05-10T12:23:37;9.33;;;8.33;;
5379;SDS011;2713;42.680;23.310;2023-05-10T12:26:05;9.97;;;8.50;;
5379;SDS011;2713;42.680;23.310;2023-05-10T12:28:32;9.10;;;7.97;;
5379;SDS011;2713;42.680;23.310;2023-05-10T12:31:00;9.23;;;8.30;;
5379;SDS011;2713;42.680;23.310;2023-05-10T12:33:34;12.40;;;8.70;;
5379;SDS011;2713;42.680;23.310;2023-05-10T12:36:05;9.30;;;8.27;;
5379;SDS011;2713;42.680;23.310;2023-05-10T12:38:33;9.53;;;8.53;;
5379;SDS011;2713;42.680;23.310;2023-05-10T12:41:04;11.23;;;9.17;;
5379;SDS011;2713;42.680;23.310;2023-05-10T12:43:32;10.10;;;8.20;;
5379;SDS011;2713;42.680;23.310;2023-05-10T12:46:03;9.43;;;8.43;;
5379;SDS011;2713;42.680;23.310;2023-05-10T12:48:31;15.43;;;8.20;;
5379;SDS011;2713;42.680;23.310;2023-05-10T12:50:59;9.50;;;8.47;;
5379;SDS011;2713;42.680;23.310;2023-05-10T12:53:27;13.43;;;8.37;;
5379;SDS011;2713;42.680;23.310;2023-05-10T12:55:54;9.60;;;8.50;;
5379;SDS011;2713;42.680;23.310;2023-05-10T12:58:21;9.17;;;8.20;;
5379;SDS011;2713;42.680;23.310;2023-05-10T13:00:47;9.43;;;8.40;;
5379;SDS011;2713;42.680;23.310;2023-05-10T13:03:14;11.43;;;8.67;;
5379;SDS011;2713;42.680;23.310;2023-05-10T13:05:41;9.43;;;8.37;;
5379;SDS011;2713;42.680;23.310;2023-05-10T13:08:09;10.10;;;8.23;;
5379;SDS011;2713;42.680;23.310;2023-05-10T13:10:37;9.50;;;8.60;;
5379;SDS011;2713;42.680;23.310;2023-05-10T13:13:07;9.70;;;8.70;;
5379;SDS011;2713;42.680;23.310;2023-05-10T13:15:34;9.70;;;8.07;;
5379;SDS011;2713;42.680;23.310;2023-05-10T13:18:01;13.07;;;8.53;;
5379;SDS011;2713;42.680;23.310;2023-05-10T13:20:28;8.93;;;8.13;;
5379;SDS011;2713;42.680;23.310;2023-05-10T13:22:55;9.77;;;8.43;;
5379;SDS011;2713;42.680;23.310;2023-05-10T13:25:22;9.37;;;8.47;;
5379;SDS011;2713;42.680;23.310;2023-05-10T13:27:50;9.83;;;8.80;;
5379;SDS011;2713;42.680;23.310;2023-05-10T13:30:17;11.00;;;8.50;;
5379;SDS011;2713;42.680;23.310;2023-05-10T13:32:45;9.90;;;8.10;;
5379;SDS011;2713;42.680;23.310;2023-05-10T13:35:12;13.70;;;8.90;;
5379;SDS011;2713;42.680;23.310;2023-05-10T13:37:39;9.33;;;8.33;;
5379;SDS011;2713;42.680;23.310;2023-05-10T13:40:06;8.83;;;7.93;;
5379;SDS011;2713;42.680;23.310;2023-05-10T13:42:34;8.63;;;7.73;;
5379;SDS011;2713;42.680;23.310;2023-05-10T13:45:02;10.33;;;7.30;;
5379;SDS011;2713;42.680;23.310;2023-05-10T13:47:30;9.73;;;7.10;;
5379;SDS011;2713;42.680;23.310;2023-05-10T13:49:59;8.50;;;7.70;;
5379;SDS011;2713;42.680;23.310;2023-05-10T13:52:26;7.80;;;7.10;;
5379;SDS011;2713;42.680;23.310;2023-05-10T13:54:53;9.60;;;7.13;;
5379;SDS011;2713;42.680;23.310;2023-05-10T13:57:21;8.77;;;7.87;;
5379;SDS011;2713;42.680;23.310;2023-05-10T13:59:49;8.83;;;7.80;;
5379;SDS011;2713;42.680;23.310;2023-05-10T14:02:18;8.77;;;7.73;;
5379;SDS011;2713;42.680;23.310;2023-05-10T14:04:45;9.10;;;7.80;;
5379;SDS011;2713;42.680;23.310;2023-05-10T14:07:12;8.93;;;8.03;;
5379;SDS011;2713;42.680;23.310;2023-05-10T14:09:38;9.50;;;7.90;;
5379;SDS011;2713;42.680;23.310;2023-05-10T14:12:05;9.90;;;8.77;;
5379;SDS011;2713;42.680;23.310;2023-05-10T14:14:32;10.30;;;8.30;;
5379;SDS011;2713;42.680;23.310;2023-05-10T14:16:59;8.73;;;7.90;;
5379;SDS011;2713;42.680;23.310;2023-05-10T14:19:27;11.40;;;8.00;;
5379;SDS011;2713;42.680;23.310;2023-05-10T14:21:57;8.23;;;7.23;;
5379;SDS011;2713;42.680;23.310;2023-05-10T14:24:24;10.80;;;8.07;;
5379;SDS011;2713;42.680;23.310;2023-05-10T14:26:51;8.63;;;7.30;;
5379;SDS011;2713;42.680;23.310;2023-05-10T14:29:19;10.70;;;8.10;;
5379;SDS011;2713;42.680;23.310;2023-05-10T14:31:45;11.77;;;8.40;;
5379;SDS011;2713;42.680;23.310;2023-05-10T14:34:12;12.17;;;7.70;;
5379;SDS011;2713;42.680;23.310;2023-05-10T14:36:40;13.40;;;7.70;;
5379;SDS011;2713;42.680;23.310;2023-05-10T14:39:07;10.60;;;8.10;;
5379;SDS011;2713;42.680;23.310;2023-05-10T14:41:35;11.60;;;7.97;;
5379;SDS011;2713;42.680;23.310;2023-05-10T14:44:02;8.77;;;7.97;;
5379;SDS011;2713;42.680;23.310;2023-05-10T14:46:29;10.93;;;8.70;;
5379;SDS011;2713;42.680;23.310;2023-05-10T14:48:56;12.20;;;8.43;;
5379;SDS011;2713;42.680;23.310;2023-05-10T14:51:22;9.60;;;7.83;;
5379;SDS011;2713;42.680;23.310;2023-05-10T14:53:50;9.40;;;8.40;;
5379;SDS011;2713;42.680;23.310;2023-05-10T14:56:17;8.87;;;7.60;;
5379;SDS011;2713;42.680;23.310;2023-05-10T14:58:45;9.37;;;7.90;;
5379;SDS011;2713;42.680;23.310;2023-05-10T15:01:12;11.17;;;9.13;;
5379;SDS011;2713;42.680;23.310;2023-05-10T15:03:39;11.02;;;8.10;;
5379;SDS011;2713;42.680;23.310;2023-05-10T15:06:07;9.10;;;8.13;;
5379;SDS011;2713;42.680;23.310;2023-05-10T15:08:34;9.47;;;8.47;;
5379;SDS011;2713;42.680;23.310;2023-05-10T15:11:03;9.80;;;8.67;;
5379;SDS011;2713;42.680;23.310;2023-05-10T15:13:29;13.20;;;8.40;;